Central Virginia Flyers


Central Virginia Flyers is a 10 member flying club based in Richmond, VA at Hanover County Airport (KOFP). We own N787AT, a 1977 Cessna 172 with 180hp conversion. If you are interested in membership, please contact Brenton at brenton@cvflyers.org.


Aviation Digital Data Service (ADDS)

Output produced by METARs form (1847 UTC 24 October 2014)
found at http://aviationweather.gov/adds/metars/
 
KOFP 241754Z AUTO 31006KT 10SM CLR 19/06 A2997 RMK AO2 SLP146 T01940056 10194 20072 58021
KRIC 241754Z 29009KT 10SM BKN250 19/06 A2995 RMK AO2 SLP148 T01940056 10194 20100 58020
KRIC 241722Z 2418/2518 32012KT P6SM SCT040 
     FM242000 28003KT P6SM SKC 
     FM251500 26007KT P6SM SKC